Time;durP1;ratioP1;P1;durP2;ratioP2;P2;SDS_P1;SDS_P2;PMS_P1;PMS_P2;Temp;Humidity;BMP_temperature;BMP_pressure;BME280_temperature;BME280_humidity;BME280_pressure;Samples;Min_cycle;Max_cycle;Signal;HPM_P1;HPM_P2
2021/03/06 00:00:54;;;;;;;16.53;14.77;;;;;;;-5.67;100.00;99441.25;4994057;28;20216;-67
2021/03/06 00:03:22;;;;;;;16.73;14.60;;;;;;;-5.69;100.00;99442.13;4990473;28;20209;-67
2021/03/06 00:05:50;;;;;;;21.23;15.63;;;;;;;-5.57;100.00;99439.34;4988859;28;20545;-66
2021/03/06 00:08:17;;;;;;;20.83;17.53;;;;;;;-5.54;100.00;99444.44;4991303;28;20605;-66
2021/03/06 00:10:45;;;;;;;37.97;25.27;;;;;;;-5.63;100.00;99448.94;5000343;28;20197;-67
2021/03/06 00:13:12;;;;;;;24.63;18.33;;;;;;;-5.73;100.00;99443.91;4992063;28;20212;-67
2021/03/06 00:15:39;;;;;;;16.47;14.60;;;;;;;-5.68;100.00;99442.13;4993593;28;20892;-67
2021/03/06 00:18:06;;;;;;;17.93;15.07;;;;;;;-5.73;100.00;99438.75;4996667;28;20225;-66
2021/03/06 00:20:33;;;;;;;15.70;14.03;;;;;;;-5.77;100.00;99442.25;4992242;28;20208;-66
2021/03/06 00:23:00;;;;;;;15.00;13.37;;;;;;;-5.84;100.00;99451.84;4999894;28;20583;-67
2021/03/06 00:25:28;;;;;;;18.17;13.53;;;;;;;-5.90;100.00;99446.75;4994474;28;20193;-67
2021/03/06 00:27:56;;;;;;;19.17;15.40;;;;;;;-5.91;100.00;99449.38;4992597;28;20225;-66
2021/03/06 00:30:24;;;;;;;21.53;18.07;;;;;;;-5.94;100.00;99454.59;4992882;28;20219;-67
2021/03/06 00:32:52;;;;;;;15.30;13.73;;;;;;;-5.95;100.00;99456.31;4987513;28;20209;-67
2021/03/06 00:35:19;;;;;;;16.80;14.60;;;;;;;-5.87;100.00;99466.53;4995694;28;20782;-66
2021/03/06 00:37:46;;;;;;;16.60;12.47;;;;;;;-5.93;100.00;99461.47;4988731;28;20256;-66
2021/03/06 00:40:14;;;;;;;14.10;10.70;;;;;;;-5.93;100.00;99464.06;4999483;28;20209;-67
2021/03/06 00:42:41;;;;;;;12.80;11.57;;;;;;;-5.93;100.00;99470.06;4996002;28;20578;-67
2021/03/06 00:45:10;;;;;;;12.87;11.50;;;;;;;-5.92;100.00;99469.16;4992387;28;20317;-67
2021/03/06 00:47:38;;;;;;;14.33;11.27;;;;;;;-5.88;100.00;99473.41;4995657;28;20228;-67
2021/03/06 00:50:08;;;;;;;12.47;11.20;;;;;;;-6.04;100.00;99464.25;4990050;28;20223;-68
2021/03/06 00:52:35;;;;;;;12.93;10.80;;;;;;;-6.09;100.00;99474.63;4992045;28;20198;-67
2021/03/06 00:55:03;;;;;;;12.10;10.97;;;;;;;-6.12;100.00;99470.38;4992828;28;20225;-67
2021/03/06 00:57:30;;;;;;;13.17;11.03;;;;;;;-6.16;100.00;99475.59;4991540;28;20229;-67
2021/03/06 00:59:57;;;;;;;13.67;11.57;;;;;;;-6.18;100.00;99467.03;4989812;28;20212;-67
2021/03/06 01:02:25;;;;;;;13.70;11.77;;;;;;;-6.22;100.00;99473.09;4993726;28;20202;-67
2021/03/06 01:04:52;;;;;;;14.53;11.83;;;;;;;-6.20;100.00;99468.78;4992371;28;20549;-67
2021/03/06 01:07:19;;;;;;;13.67;11.53;;;;;;;-6.21;100.00;99465.34;4992540;28;20460;-66
2021/03/06 01:09:46;;;;;;;16.93;13.50;;;;;;;-6.23;100.00;99467.13;4990211;28;20296;-67
2021/03/06 01:12:13;;;;;;;17.03;12.77;;;;;;;-6.29;100.00;99470.63;4992163;28;20441;-67
2021/03/06 01:14:40;;;;;;;12.60;11.03;;;;;;;-6.34;100.00;99466.38;4996088;28;20457;-66
2021/03/06 01:17:07;;;;;;;13.60;11.83;;;;;;;-6.37;100.00;99469.00;4992327;28;20228;-67
2021/03/06 01:19:35;;;;;;;12.83;11.50;;;;;;;-6.41;100.00;99465.63;4993434;28;20205;-67
2021/03/06 01:22:02;;;;;;;17.13;11.47;;;;;;;-6.44;100.00;99461.38;4994740;28;20213;-67
2021/03/06 01:24:35;;;;;;;14.70;12.20;;;;;;;-6.48;100.00;99464.00;4998351;28;20217;-67
2021/03/06 01:27:02;;;;;;;12.73;11.27;;;;;;;-6.50;100.00;99455.44;4995728;28;20788;-67
2021/03/06 01:29:29;;;;;;;12.50;11.20;;;;;;;-6.53;100.00;99456.34;4997325;28;20667;-67
2021/03/06 01:31:57;;;;;;;13.23;11.47;;;;;;;-6.55;100.00;99456.34;4998851;28;20729;-67
2021/03/06 01:34:24;;;;;;;16.30;13.37;;;;;;;-6.52;100.00;99454.59;5000233;28;20605;-67
2021/03/06 01:36:53;;;;;;;13.67;11.60;;;;;;;-6.55;100.00;99455.50;4998189;28;20256;-67
2021/03/06 01:39:20;;;;;;;12.03;10.83;;;;;;;-6.55;100.00;99455.50;4997516;28;20209;-67
2021/03/06 01:41:48;;;;;;;15.63;11.97;;;;;;;-6.54;100.00;99462.38;4993651;28;20571;-67
2021/03/06 01:44:16;;;;;;;13.93;12.13;;;;;;;-6.51;100.00;99452.00;4994696;28;20205;-66
2021/03/06 01:46:43;;;;;;;12.37;11.03;;;;;;;-6.56;100.00;99456.38;4999049;28;20463;-67
2021/03/06 01:49:11;;;;;;;12.20;10.90;;;;;;;-6.60;100.00;99460.72;4996615;28;20232;-67
2021/03/06 01:51:38;;;;;;;13.27;11.47;;;;;;;-6.66;100.00;99460.78;5003418;28;20292;-67
2021/03/06 01:54:06;;;;;;;12.27;10.67;;;;;;;-6.72;100.00;99450.56;4999106;28;20705;-66
2021/03/06 01:56:33;;;;;;;13.67;10.97;;;;;;;-6.69;100.00;99445.38;5003044;28;20237;-66
2021/03/06 01:59:01;;;;;;;12.20;10.60;;;;;;;-6.75;100.00;99446.28;4997476;28;20208;-66
2021/03/06 02:01:28;;;;;;;11.13;10.10;;;;;;;-6.74;100.00;99447.16;4998472;28;20593;-66
2021/03/06 02:03:57;;;;;;;10.80;9.80;;;;;;;-6.77;100.00;99460.09;5000037;28;20212;-67
2021/03/06 02:06:25;;;;;;;16.17;10.53;;;;;;;-6.75;100.00;99454.03;4996418;28;20228;-67
2021/03/06 02:08:53;;;;;;;15.43;10.80;;;;;;;-6.78;100.00;99450.66;4997469;28;20210;-67
2021/03/06 02:11:31;;;;;;;12.80;10.10;;;;;;;-6.72;100.00;99447.97;4997306;28;21053;-67
2021/03/06 02:14:06;;;;;;;12.73;10.40;;;;;;;-6.80;100.00;99450.66;4997657;28;20216;-67
2021/03/06 02:16:36;;;;;;;11.93;10.77;;;;;;;-6.81;100.00;99448.09;4996850;28;20624;-67
2021/03/06 02:19:10;;;;;;;12.37;10.63;;;;;;;-6.83;100.00;99446.38;4996041;28;20982;-65
2021/03/06 02:21:49;;;;;;;13.20;10.43;;;;;;;-6.86;100.00;99449.00;4996175;28;20208;-67
2021/03/06 02:24:39;;;;;;;13.40;11.43;;;;;;;-6.91;100.00;99450.78;4998393;28;20211;-67
2021/03/06 02:27:15;;;;;;;15.97;14.20;;;;;;;-6.94;100.00;99448.25;4995121;28;20231;-67
2021/03/06 02:29:45;;;;;;;17.00;10.93;;;;;;;-6.92;100.00;99449.06;4996169;28;20443;-67
2021/03/06 02:32:16;;;;;;;10.43;9.40;;;;;;;-6.92;100.00;99453.38;4998515;28;20205;-67
2021/03/06 02:34:48;;;;;;;13.20;10.80;;;;;;;-6.93;100.00;99457.69;4992076;28;20615;-68
2021/03/06 02:37:18;;;;;;;12.33;11.13;;;;;;;-6.98;100.00;99456.88;4995914;28;20322;-67
2021/03/06 02:39:47;;;;;;;15.83;14.23;;;;;;;-6.96;100.00;99464.63;4996737;28;20201;-67
2021/03/06 02:42:17;;;;;;;13.77;12.27;;;;;;;-6.89;100.00;99459.34;4993333;28;20205;-67
2021/03/06 02:44:45;;;;;;;12.80;10.57;;;;;;;-6.67;100.00;99459.09;4993241;28;20205;-67
2021/03/06 02:47:13;;;;;;;13.97;11.67;;;;;;;-6.85;100.00;99471.31;4993835;28;20222;-67
2021/03/06 02:49:44;;;;;;;14.87;13.17;;;;;;;-6.88;100.00;99457.63;4997796;28;20205;-67
2021/03/06 02:52:11;;;;;;;11.50;10.40;;;;;;;-6.92;100.00;99467.13;4995735;28;20213;-67
2021/03/06 02:54:38;;;;;;;12.73;11.43;;;;;;;-6.96;100.00;99460.28;4997775;28;20503;-66
2021/03/06 02:57:06;;;;;;;13.33;11.67;;;;;;;-7.05;100.00;99460.41;4995182;28;20503;-67
2021/03/06 02:59:42;;;;;;;13.60;11.43;;;;;;;-7.11;100.00;99463.88;4999556;28;20216;-67
2021/03/06 03:02:15;;;;;;;12.30;11.07;;;;;;;-7.13;100.00;99463.06;4994440;28;20440;-67
2021/03/06 03:04:54;;;;;;;12.07;10.83;;;;;;;-6.93;100.00;99468.00;4988630;28;21022;-66
2021/03/06 03:07:24;;;;;;;15.10;12.77;;;;;;;-7.04;100.00;99467.25;4996443;28;20225;-67
2021/03/06 03:09:56;;;;;;;12.43;10.33;;;;;;;-7.08;100.00;99469.00;4996613;28;20205;-67
2021/03/06 03:12:25;;;;;;;10.00;9.00;;;;;;;-7.16;100.00;99458.81;4997350;28;20213;-66
2021/03/06 03:14:58;;;;;;;11.67;10.30;;;;;;;-7.17;100.00;99461.38;4992651;28;20448;-67
2021/03/06 03:17:31;;;;;;;12.23;10.13;;;;;;;-7.20;100.00;99459.69;4993529;28;20856;-66
2021/03/06 03:20:02;;;;;;;11.70;9.90;;;;;;;-7.23;100.00;99461.47;4994643;28;20507;-67
2021/03/06 03:22:33;;;;;;;12.57;11.27;;;;;;;-7.21;100.00;99459.72;4999046;28;20444;-67
2021/03/06 03:25:01;;;;;;;12.50;11.10;;;;;;;-7.27;100.00;99460.63;4997531;28;20772;-66
2021/03/06 03:27:29;;;;;;;11.07;9.97;;;;;;;-7.27;100.00;99465.78;4995225;28;20462;-67
2021/03/06 03:29:59;;;;;;;11.73;10.00;;;;;;;-7.31;100.00;99458.94;4993249;28;20407;-67
2021/03/06 03:32:27;;;;;;;11.27;10.23;;;;;;;-7.29;100.00;99465.81;4995175;28;20440;-67
2021/03/06 03:34:55;;;;;;;13.77;11.67;;;;;;;-7.36;100.00;99459.00;4994340;28;20205;-66
2021/03/06 03:37:23;;;;;;;14.23;11.60;;;;;;;-7.39;100.00;99446.13;4998299;28;20551;-67
2021/03/06 03:39:50;;;;;;;13.23;11.97;;;;;;;-7.34;100.00;99453.84;4991886;28;20205;-67
2021/03/06 03:42:19;;;;;;;15.60;11.03;;;;;;;-7.45;100.00;99452.22;4994685;28;20437;-66
2021/03/06 03:44:46;;;;;;;11.93;10.70;;;;;;;-7.46;100.00;99447.06;4996844;28;20216;-67
2021/03/06 03:47:13;;;;;;;18.93;11.97;;;;;;;-7.47;100.00;99453.09;4996066;28;20584;-67
2021/03/06 03:49:41;;;;;;;11.43;10.37;;;;;;;-7.50;100.00;99458.28;4994270;28;20995;-67
2021/03/06 03:52:08;;;;;;;12.57;10.97;;;;;;;-7.49;100.00;99457.41;4996920;28;20787;-67
2021/03/06 03:54:35;;;;;;;14.63;11.30;;;;;;;-7.53;100.00;99459.19;4996848;28;20863;-66
2021/03/06 03:57:03;;;;;;;12.97;11.13;;;;;;;-7.52;100.00;99460.00;4992494;28;20493;-67
2021/03/06 03:59:32;;;;;;;11.33;9.37;;;;;;;-7.43;100.00;99459.91;4997975;28;20440;-67
2021/03/06 04:01:59;;;;;;;9.60;8.70;;;;;;;-7.50;100.00;99469.44;4995845;28;20996;-66
2021/03/06 04:04:29;;;;;;;9.63;8.60;;;;;;;-7.56;100.00;99467.78;4996005;28;20296;-66
2021/03/06 04:06:59;;;;;;;10.20;9.20;;;;;;;-7.57;100.00;99460.09;4992362;28;21056;-66
2021/03/06 04:09:26;;;;;;;11.47;9.33;;;;;;;-7.58;100.00;99459.22;4997107;28;20444;-66
2021/03/06 04:11:54;;;;;;;10.53;9.43;;;;;;;-7.54;100.00;99472.06;4994037;28;20458;-66
2021/03/06 04:14:21;;;;;;;9.60;8.70;;;;;;;-7.64;100.00;99461.84;4994291;28;20400;-66
2021/03/06 04:16:48;;;;;;;9.17;8.33;;;;;;;-7.68;100.00;99467.91;4995706;28;20241;-67
2021/03/06 04:19:15;;;;;;;10.23;9.27;;;;;;;-7.70;100.00;99467.06;4997507;28;20525;-66
2021/03/06 04:21:42;;;;;;;12.63;9.27;;;;;;;-7.70;100.00;99464.47;4994703;28;20212;-67
2021/03/06 04:24:10;;;;;;;11.83;9.00;;;;;;;-7.74;100.00;99467.94;4992083;28;20209;-67
2021/03/06 04:26:49;;;;;;;10.03;9.03;;;;;;;-7.76;100.00;99473.09;4996273;28;20240;-66
2021/03/06 04:29:18;;;;;;;10.00;9.00;;;;;;;-7.80;100.00;99471.41;4997163;28;20440;-67
2021/03/06 04:31:44;;;;;;;10.20;9.30;;;;;;;-7.81;100.00;99471.41;4995684;28;20440;-66
2021/03/06 04:34:12;;;;;;;10.10;9.13;;;;;;;-7.78;100.00;99468.81;4996571;28;20468;-66
2021/03/06 04:36:39;;;;;;;9.60;8.70;;;;;;;-7.77;100.00;99473.09;4994618;28;20778;-66
2021/03/06 04:39:06;;;;;;;9.67;8.87;;;;;;;-7.78;100.00;99468.81;4996073;28;20554;-67
2021/03/06 04:41:35;;;;;;;9.80;8.80;;;;;;;-7.80;100.00;99474.00;4992933;28;20451;-67
2021/03/06 04:44:02;;;;;;;10.97;8.87;;;;;;;-7.75;100.00;99472.22;4997710;28;20453;-66
2021/03/06 04:46:29;;;;;;;11.00;9.93;;;;;;;-7.78;100.00;99473.97;4991114;28;20496;-67
2021/03/06 04:48:57;;;;;;;10.33;9.33;;;;;;;-7.82;100.00;99477.44;4993810;28;20452;-66
2021/03/06 04:51:24;;;;;;;10.07;9.23;;;;;;;-7.80;100.00;99483.41;4995234;28;20674;-67
2021/03/06 04:53:51;;;;;;;9.23;8.33;;;;;;;-7.83;100.00;99488.59;4995713;28;20478;-66
2021/03/06 04:56:17;;;;;;;9.47;8.50;;;;;;;-7.87;100.00;99493.75;4996457;28;20456;-66
2021/03/06 04:58:45;;;;;;;8.60;7.80;;;;;;;-7.91;100.00;99481.78;4996203;28;20440;-67
2021/03/06 05:01:12;;;;;;;10.00;9.00;;;;;;;-7.89;100.00;99482.63;4993396;28;20443;-67
2021/03/06 05:03:39;;;;;;;10.20;9.20;;;;;;;-7.92;100.00;99480.09;4999697;28;20213;-67
2021/03/06 05:06:06;;;;;;;10.63;8.13;;;;;;;-7.95;100.00;99481.84;4996223;28;21100;-66
2021/03/06 05:08:33;;;;;;;9.60;8.57;;;;;;;-7.94;100.00;99481.81;4996910;28;20495;-67
2021/03/06 05:11:00;;;;;;;9.73;8.73;;;;;;;-7.89;100.00;99481.78;5000422;28;20447;-67
2021/03/06 05:13:28;;;;;;;9.17;8.07;;;;;;;-7.91;100.00;99476.63;5001309;28;20440;-65
2021/03/06 05:15:55;;;;;;;9.73;8.70;;;;;;;-7.92;100.00;99474.94;4998998;28;20458;-67
2021/03/06 05:18:23;;;;;;;9.53;8.53;;;;;;;-7.98;100.00;99480.13;5002544;28;21240;-67
2021/03/06 05:20:50;;;;;;;9.57;8.63;;;;;;;-8.00;100.00;99484.44;4992576;28;20952;-66
2021/03/06 05:23:17;;;;;;;8.83;8.00;;;;;;;-8.07;100.00;99481.03;5000243;28;20530;-67
2021/03/06 05:25:44;;;;;;;8.27;7.40;;;;;;;-8.14;100.00;99482.81;4997587;28;20994;-66
2021/03/06 05:28:11;;;;;;;9.17;8.27;;;;;;;-8.05;100.00;99493.91;4983151;28;20490;-67
2021/03/06 05:30:38;;;;;;;9.90;8.93;;;;;;;-8.13;100.00;99488.81;4995050;28;20441;-67
2021/03/06 05:33:06;;;;;;;8.93;8.20;;;;;;;-8.15;100.00;99493.09;4998900;28;20443;-67
2021/03/06 05:35:33;;;;;;;9.17;8.10;;;;;;;-8.15;100.00;99493.94;4992840;28;20451;-66
2021/03/06 05:38:00;;;;;;;9.00;8.27;;;;;;;-8.14;100.00;99487.97;4998481;28;21023;-66
2021/03/06 05:40:30;;;;;;;8.23;7.43;;;;;;;-8.14;100.00;99499.97;4992218;28;20472;-67
2021/03/06 05:42:57;;;;;;;8.23;7.40;;;;;;;-8.15;100.00;99493.09;4983652;28;20453;-67
2021/03/06 05:45:24;;;;;;;8.33;7.53;;;;;;;-8.17;100.00;99499.97;4984394;28;20840;-67
2021/03/06 05:47:51;;;;;;;9.10;8.17;;;;;;;-8.20;100.00;99487.16;4993237;28;20605;-67
2021/03/06 05:50:19;;;;;;;9.83;8.03;;;;;;;-8.15;100.00;99495.69;4997309;28;20448;-67
2021/03/06 05:52:47;;;;;;;9.17;8.27;;;;;;;-8.12;100.00;99494.81;4991750;28;20464;-66
2021/03/06 05:55:17;;;;;;;9.20;8.37;;;;;;;-8.07;100.00;99493.06;4993570;28;20448;-68
2021/03/06 05:57:54;;;;;;;9.77;8.87;;;;;;;-8.12;100.00;99489.69;4994217;28;20257;-67
2021/03/06 06:00:22;;;;;;;8.53;7.80;;;;;;;-8.12;100.00;99493.09;4994701;28;20459;-67
2021/03/06 06:02:55;;;;;;;9.00;8.07;;;;;;;-8.10;100.00;99501.66;4997496;28;21268;-67
2021/03/06 06:05:25;;;;;;;8.67;7.87;;;;;;;-8.07;100.00;99495.66;4983334;28;20571;-68
2021/03/06 06:07:55;;;;;;;8.27;7.57;;;;;;;-8.05;100.00;99505.03;4988195;28;20488;-67
2021/03/06 06:10:22;;;;;;;10.07;9.07;;;;;;;-7.84;100.00;99503.19;4994261;28;20453;-68
2021/03/06 06:12:49;;;;;;;8.73;7.87;;;;;;;-7.78;100.00;99510.00;4998598;28;20444;-68
2021/03/06 06:15:21;;;;;;;8.83;7.93;;;;;;;-7.86;100.00;99510.91;4989159;28;20518;-68
2021/03/06 06:17:48;;;;;;;9.27;8.47;;;;;;;-7.85;100.00;99507.47;4983106;28;20485;-68
2021/03/06 06:20:16;;;;;;;11.63;10.43;;;;;;;-7.72;100.00;99509.97;4981141;28;20461;-68
2021/03/06 06:22:44;;;;;;;24.07;20.20;;;;;;;-7.63;100.00;99511.59;4975430;28;20826;-67
2021/03/06 06:25:30;;;;;;;11.07;9.97;;;;;;;-7.60;100.00;99511.56;4965165;28;20209;-68
2021/03/06 06:28:11;;;;;;;11.20;10.00;;;;;;;-7.53;100.00;99513.25;4987558;28;20618;-69
2021/03/06 06:30:38;;;;;;;10.50;9.27;;;;;;;-7.46;100.00;99516.63;4993068;28;20222;-69
2021/03/06 06:33:06;;;;;;;9.67;8.87;;;;;;;-7.40;100.00;99524.28;4982512;28;20464;-68
2021/03/06 06:35:40;;;;;;;11.63;9.30;;;;;;;-7.36;100.00;99531.16;4988421;28;20485;-67
2021/03/06 06:38:09;;;;;;;9.23;8.43;;;;;;;-7.30;100.00;99530.22;4990363;28;20487;-68
2021/03/06 06:40:37;;;;;;;10.23;9.33;;;;;;;-7.26;100.00;99539.63;4992254;28;20464;-67
2021/03/06 06:43:22;;;;;;;9.93;8.60;;;;;;;-7.04;100.00;99536.84;4986493;28;20544;-68
2021/03/06 06:45:49;;;;;;;11.53;10.43;;;;;;;-6.96;100.00;99535.03;4984821;28;20488;-66
2021/03/06 06:48:18;;;;;;;11.63;9.27;;;;;;;-6.90;100.00;99545.28;4988036;28;21046;-67
2021/03/06 06:50:45;;;;;;;10.73;9.63;;;;;;;-6.86;100.00;99546.97;4984645;28;20817;-67
2021/03/06 06:53:25;;;;;;;10.17;9.20;;;;;;;-6.74;100.00;99550.28;4984622;28;20461;-66
2021/03/06 06:55:53;;;;;;;10.03;9.03;;;;;;;-6.69;100.00;99543.34;4985887;28;20564;-67
2021/03/06 06:58:40;;;;;;;10.37;9.43;;;;;;;-6.60;100.00;99548.41;4989673;28;20574;-66
2021/03/06 07:01:31;;;;;;;10.10;9.10;;;;;;;-6.49;100.00;99558.59;4988434;28;20443;-66
2021/03/06 07:04:00;;;;;;;10.80;9.70;;;;;;;-6.37;100.00;99549.88;4986430;28;20209;-67
2021/03/06 07:06:27;;;;;;;12.27;10.80;;;;;;;-6.27;100.00;99554.03;4980843;28;20232;-68
2021/03/06 07:09:14;;;;;;;23.17;15.47;;;;;;;-6.18;100.00;99560.81;4983943;28;20457;-68
2021/03/06 07:11:43;;;;;;;28.23;22.63;;;;;;;-6.04;100.00;99559.75;4986441;28;20209;-68
2021/03/06 07:14:10;;;;;;;25.67;21.53;;;;;;;-5.86;100.00;99558.63;4984082;28;20201;-69
2021/03/06 07:16:56;;;;;;;21.67;18.10;;;;;;;-5.70;100.00;99561.81;4989480;28;20228;-67
2021/03/06 07:19:26;;;;;;;21.97;15.03;;;;;;;-5.63;100.00;99560.00;4983653;28;20624;-67
2021/03/06 07:21:53;;;;;;;17.80;15.17;;;;;;;-5.45;100.00;99562.28;4986277;28;20221;-68
2021/03/06 07:24:20;;;;;;;19.27;17.00;;;;;;;-5.06;99.83;99564.25;4986576;28;20853;-67
2021/03/06 07:26:51;;;;;;;27.17;24.40;;;;;;;-4.79;96.85;99559.44;4983877;28;21294;-67
2021/03/06 07:29:20;;;;;;;19.43;17.33;;;;;;;-4.95;97.70;99564.03;4986879;28;20362;-67
2021/03/06 07:31:50;;;;;;;18.37;13.90;;;;;;;-4.87;96.83;99571.66;4984716;28;20202;-68
2021/03/06 07:34:19;;;;;;;12.50;11.40;;;;;;;-4.58;97.30;99572.88;4981087;28;20244;-69
2021/03/06 07:36:46;;;;;;;11.70;10.67;;;;;;;-4.56;96.97;99568.50;4988755;28;20237;-68
2021/03/06 07:39:14;;;;;;;12.03;10.30;;;;;;;-4.37;96.96;99572.41;4989040;28;20216;-69
2021/03/06 07:41:46;;;;;;;12.80;11.47;;;;;;;-4.11;94.16;99575.38;4984334;28;20471;-68
2021/03/06 07:44:13;;;;;;;20.80;17.17;;;;;;;-4.21;95.31;99570.38;4982204;28;20205;-68
2021/03/06 07:46:40;;;;;;;13.47;12.03;;;;;;;-4.13;95.76;99574.56;4985337;28;20232;-69
2021/03/06 07:49:12;;;;;;;12.87;11.20;;;;;;;-3.87;95.80;99573.13;4984877;28;20204;-67
2021/03/06 07:51:43;;;;;;;12.30;11.20;;;;;;;-3.75;94.82;99577.19;4983624;28;20296;-68
2021/03/06 07:54:11;;;;;;;12.17;10.93;;;;;;;-3.60;95.44;99581.16;4989668;28;20533;-68
2021/03/06 07:56:39;;;;;;;11.47;10.00;;;;;;;-3.61;94.68;99579.47;4982208;28;20243;-68
2021/03/06 07:59:47;;;;;;;13.63;11.27;;;;;;;-3.52;95.48;99582.72;4982495;28;20208;-68
2021/03/06 08:02:34;;;;;;;13.23;10.87;;;;;;;-3.42;95.59;99577.28;4987815;28;20268;-68
2021/03/06 08:05:53;;;;;;;12.17;10.80;;;;;;;-3.21;94.35;99576.78;4984217;28;20239;-69
2021/03/06 08:08:57;;;;;;;11.80;10.67;;;;;;;-3.08;94.15;99571.28;4921773;29;20762;-66
2021/03/06 08:11:25;;;;;;;12.23;10.83;;;;;;;-2.90;93.31;99572.56;4981715;28;20202;-68
2021/03/06 08:13:53;;;;;;;11.73;10.33;;;;;;;-2.69;91.76;99567.66;4985512;28;20206;-67
2021/03/06 08:16:40;;;;;;;14.87;11.07;;;;;;;-2.56;91.81;99573.38;4982599;28;20705;-68
2021/03/06 08:19:30;;;;;;;12.47;10.63;;;;;;;-2.32;89.98;99571.84;4981556;28;20666;-68
2021/03/06 08:22:12;;;;;;;11.67;8.93;;;;;;;-2.25;85.79;99573.41;4982118;28;20707;-67
2021/03/06 08:24:40;;;;;;;16.30;14.70;;;;;;;-1.95;82.57;99567.34;4982182;28;20201;-67
2021/03/06 08:27:14;;;;;;;9.33;8.10;;;;;;;-1.79;81.61;99568.56;4986109;28;20689;-68
2021/03/06 08:29:46;;;;;;;9.50;8.03;;;;;;;-1.66;80.12;99568.22;4981415;28;20217;-66
2021/03/06 08:32:16;;;;;;;9.03;8.13;;;;;;;-1.58;80.26;99570.53;4986105;28;20435;-68
2021/03/06 08:34:46;;;;;;;9.60;7.73;;;;;;;-1.33;78.69;99560.19;4979645;28;20300;-68
2021/03/06 08:37:32;;;;;;;13.13;11.80;;;;;;;-1.08;77.26;99572.41;4980756;28;20229;-68
2021/03/06 08:40:03;;;;;;;10.30;8.07;;;;;;;-0.86;75.20;99563.88;4983200;28;20208;-67
2021/03/06 08:42:32;;;;;;;16.33;11.73;;;;;;;-0.96;75.25;99569.38;4984821;28;20209;-68
2021/03/06 08:45:01;;;;;;;10.63;9.13;;;;;;;-0.88;74.04;99574.34;4984898;28;20206;-67
2021/03/06 08:47:30;;;;;;;15.53;12.77;;;;;;;-0.69;72.91;99565.91;4983646;28;20233;-67
2021/03/06 08:49:59;;;;;;;10.13;9.07;;;;;;;-0.70;71.80;99567.66;4983135;28;20217;-67
2021/03/06 08:52:27;;;;;;;15.63;14.20;;;;;;;-0.57;71.66;99572.41;4981851;28;20429;-67
2021/03/06 08:54:55;;;;;;;9.87;9.07;;;;;;;-0.58;72.00;99568.97;4981091;28;20674;-68
2021/03/06 08:57:28;;;;;;;9.30;8.40;;;;;;;-0.41;70.44;99565.78;4983243;28;20225;-68
2021/03/06 09:00:17;;;;;;;7.47;5.33;;;;;;;-0.16;68.61;99557.06;4986419;28;20730;-69
2021/03/06 09:02:45;;;;;;;5.77;4.67;;;;;;;-0.15;67.19;99564.81;4981701;28;20221;-68
2021/03/06 09:05:14;;;;;;;5.40;4.57;;;;;;;-0.20;66.98;99565.88;4979585;28;20210;-68
2021/03/06 09:07:43;;;;;;;5.43;4.93;;;;;;;-0.10;66.77;99567.25;4981973;28;20749;-68
2021/03/06 09:10:38;;;;;;;7.37;4.90;;;;;;;0.07;65.22;99565.75;4985157;28;20216;-66
2021/03/06 09:13:11;;;;;;;4.90;4.40;;;;;;;0.37;63.91;99562.88;4982910;28;20206;-68
2021/03/06 09:15:50;;;;;;;6.20;4.57;;;;;;;0.16;63.86;99557.56;4981569;28;20217;-67
2021/03/06 09:18:19;;;;;;;7.57;6.90;;;;;;;0.30;63.33;99561.41;4982528;28;20233;-68
2021/03/06 09:20:53;;;;;;;4.83;4.33;;;;;;;0.49;63.27;99557.16;4983335;28;20209;-68
2021/03/06 09:23:29;;;;;;;4.53;4.13;;;;;;;0.70;61.81;99552.81;4982215;28;20301;-68
2021/03/06 09:25:56;;;;;;;5.13;4.00;;;;;;;0.79;61.14;99551.59;4980806;28;20205;-68
2021/03/06 09:28:28;;;;;;;5.33;4.10;;;;;;;1.07;60.96;99552.19;4983555;28;20213;-68
2021/03/06 09:30:56;;;;;;;4.43;4.13;;;;;;;0.96;60.34;99550.91;4982944;28;20685;-68
2021/03/06 09:33:26;;;;;;;4.63;4.27;;;;;;;1.21;59.48;99551.63;4986659;28;20477;-69
2021/03/06 09:35:59;;;;;;;6.50;4.40;;;;;;;1.37;58.97;99543.97;4981854;28;20571;-68
2021/03/06 09:38:32;;;;;;;4.17;3.87;;;;;;;1.22;60.01;99545.47;4984332;28;20206;-67
2021/03/06 09:41:00;;;;;;;7.87;4.40;;;;;;;1.33;59.75;99548.50;4988072;28;20217;-68
2021/03/06 09:43:33;;;;;;;4.23;3.83;;;;;;;1.57;56.99;99550.91;4984900;28;20280;-69
2021/03/06 09:46:01;;;;;;;5.40;4.30;;;;;;;1.66;55.64;99547.06;4981647;28;20304;-69
2021/03/06 09:48:30;;;;;;;4.83;4.43;;;;;;;1.57;56.39;99540.47;4984349;28;20197;-68
2021/03/06 09:50:58;;;;;;;4.57;4.17;;;;;;;1.87;54.68;99540.00;4987151;28;20228;-70
2021/03/06 09:53:27;;;;;;;5.03;4.50;;;;;;;1.85;55.64;99537.44;4986076;28;20205;-67
2021/03/06 09:56:18;;;;;;;5.30;4.20;;;;;;;1.98;53.90;99534.28;4992252;28;20218;-68
2021/03/06 09:58:45;;;;;;;5.00;3.93;;;;;;;2.04;55.13;99536.59;4966413;28;20214;-67
2021/03/06 10:01:17;;;;;;;4.40;4.10;;;;;;;1.99;54.58;99531.56;4984323;28;20216;-69
2021/03/06 10:03:46;;;;;;;6.33;3.67;;;;;;;1.99;52.48;99531.56;4982584;28;20202;-67
2021/03/06 10:06:15;;;;;;;5.17;4.57;;;;;;;2.19;51.87;99526.31;4987139;28;20210;-67
2021/03/06 10:08:49;;;;;;;4.13;3.83;;;;;;;2.13;52.65;99530.09;4986607;28;20681;-67
2021/03/06 10:11:17;;;;;;;4.70;4.40;;;;;;;2.21;52.11;99530.56;4987781;28;20205;-68
2021/03/06 10:13:45;;;;;;;3.63;3.43;;;;;;;2.47;48.98;99520.63;4983669;28;20213;-68
2021/03/06 10:16:12;;;;;;;4.17;3.63;;;;;;;2.56;49.44;99528.03;4985738;28;20233;-69
2021/03/06 10:18:40;;;;;;;3.13;2.83;;;;;;;2.66;49.56;99519.72;4987148;28;20202;-68
2021/03/06 10:21:14;;;;;;;3.23;3.00;;;;;;;2.83;47.46;99530.19;4985904;28;20324;-69
2021/03/06 10:23:41;;;;;;;3.50;3.20;;;;;;;2.77;46.71;99525.25;4980351;28;20207;-69
2021/03/06 10:26:23;;;;;;;3.13;3.03;;;;;;;2.86;44.32;99521.34;4991934;28;20212;-69
2021/03/06 10:28:52;;;;;;;2.70;2.60;;;;;;;2.78;45.37;99526.13;4982335;28;20206;-69
2021/03/06 10:31:30;;;;;;;2.90;2.70;;;;;;;3.00;42.96;99533.75;4981908;28;20762;-70
2021/03/06 10:33:58;;;;;;;2.67;2.57;;;;;;;3.17;42.69;99525.84;4982566;28;20224;-69
2021/03/06 10:36:26;;;;;;;2.67;2.57;;;;;;;3.44;40.05;99522.72;4986970;28;20317;-70
2021/03/06 10:39:15;;;;;;;3.23;3.03;;;;;;;3.62;41.48;99522.69;4985844;28;20220;-69
2021/03/06 10:41:43;;;;;;;3.13;2.93;;;;;;;3.44;41.21;99514.03;4981678;28;20202;-70
2021/03/06 10:44:10;;;;;;;2.93;2.73;;;;;;;3.28;42.93;99522.69;4975647;28;20206;-71
2021/03/06 10:46:37;;;;;;;3.13;2.90;;;;;;;3.43;42.13;99526.28;4983820;28;20288;-68
2021/03/06 10:49:07;;;;;;;3.00;2.80;;;;;;;3.53;39.25;99513.53;4990798;28;20201;-69
2021/03/06 10:51:43;;;;;;;3.50;2.73;;;;;;;3.59;38.60;99515.81;4982260;28;20296;-69
2021/03/06 10:54:12;;;;;;;3.20;3.00;;;;;;;3.40;41.40;99513.34;4980788;28;20209;-69
2021/03/06 10:56:39;;;;;;;3.07;2.87;;;;;;;3.40;41.81;99522.97;4985262;28;20253;-69
2021/03/06 10:59:10;;;;;;;3.40;3.10;;;;;;;3.46;41.01;99520.88;4983394;28;20206;-68
2021/03/06 11:01:47;;;;;;;3.43;3.13;;;;;;;3.77;40.62;99505.25;4984231;28;20264;-70
2021/03/06 11:04:28;;;;;;;3.30;3.10;;;;;;;3.78;38.07;99501.72;4986886;28;20721;-69
2021/03/06 11:06:57;;;;;;;5.27;4.77;;;;;;;3.47;38.07;99504.22;4982099;28;20519;-68
2021/03/06 11:09:25;;;;;;;3.37;3.17;;;;;;;3.58;39.09;99503.66;4988347;28;20206;-69
2021/03/06 11:11:53;;;;;;;3.63;3.17;;;;;;;3.74;38.82;99494.94;4987968;28;20210;-70
2021/03/06 11:14:25;;;;;;;3.57;3.27;;;;;;;3.80;39.42;99496.41;4984626;28;20206;-68
2021/03/06 11:16:54;;;;;;;2.57;2.37;;;;;;;3.90;36.50;99494.94;4983056;28;20729;-69
2021/03/06 11:19:21;;;;;;;3.03;2.73;;;;;;;3.93;35.92;99488.72;4989157;28;20209;-69
2021/03/06 11:21:48;;;;;;;2.40;2.30;;;;;;;4.21;37.33;99485.38;4989677;28;20700;-69
2021/03/06 11:24:16;;;;;;;2.97;2.77;;;;;;;4.12;37.34;99488.53;4985246;28;20531;-69
2021/03/06 11:26:43;;;;;;;3.00;2.77;;;;;;;4.12;37.21;99483.28;4985114;28;20237;-68
2021/03/06 11:29:10;;;;;;;2.60;2.50;;;;;;;4.09;36.73;99486.91;4987334;28;20217;-69
2021/03/06 11:31:53;;;;;;;2.93;2.73;;;;;;;4.20;35.55;99487.19;4985419;28;20314;-70
2021/03/06 11:34:20;;;;;;;3.50;3.20;;;;;;;4.36;34.47;99486.28;4987776;28;20228;-69
2021/03/06 11:36:47;;;;;;;2.60;2.50;;;;;;;4.29;36.57;99479.72;4985464;28;20245;-69